Time;durP1;ratioP1;P1;durP2;ratioP2;P2;SDS_P1;SDS_P2;PMS_P1;PMS_P2;Temp;Humidity;BMP_temperature;BMP_pressure;BME280_temperature;BME280_humidity;BME280_pressure;Samples;Min_cycle;Max_cycle;Signal;HPM_P1;HPM_P2
2023/08/10 00:00:30;;;;;;;5.70;1.95;;;;;;;;;;5053803;28;20489;-29
2023/08/10 00:02:55;;;;;;;4.63;1.50;;;;;;;;;;5054072;28;20025;-29
2023/08/10 00:05:20;;;;;;;10.47;1.97;;;;;;;;;;5053763;28;20032;-29
2023/08/10 00:07:46;;;;;;;4.80;1.50;;;;;;;;;;5054298;28;20031;-29
2023/08/10 00:10:11;;;;;;;7.63;1.70;;;;;;;;;;5053406;28;20045;-29
2023/08/10 00:12:39;;;;;;;5.85;1.55;;;;;;;;;;5053465;28;20025;-29
2023/08/10 00:15:06;;;;;;;4.80;1.45;;;;;;;;;;5053552;28;20071;-29
2023/08/10 00:17:32;;;;;;;4.65;1.40;;;;;;;;;;5054289;28;20021;-29
2023/08/10 00:19:57;;;;;;;6.25;1.55;;;;;;;;;;5053542;28;20040;-29
2023/08/10 00:22:22;;;;;;;4.43;1.40;;;;;;;;;;5053463;28;20066;-29
2023/08/10 00:24:47;;;;;;;4.30;1.53;;;;;;;;;;5053488;28;20263;-29
2023/08/10 00:27:13;;;;;;;5.60;1.97;;;;;;;;;;5053457;28;20606;-29
2023/08/10 00:29:38;;;;;;;7.18;1.90;;;;;;;;;;5053840;28;20302;-29
2023/08/10 00:32:03;;;;;;;6.93;1.80;;;;;;;;;;5053298;28;20467;-29
2023/08/10 00:34:28;;;;;;;7.03;1.70;;;;;;;;;;5053288;28;20259;-29
2023/08/10 00:36:54;;;;;;;5.50;1.52;;;;;;;;;;5053315;28;20028;-29
2023/08/10 00:39:19;;;;;;;5.30;1.70;;;;;;;;;;5053566;28;20021;-29
2023/08/10 00:41:44;;;;;;;4.83;1.53;;;;;;;;;;5053288;28;20025;-29
2023/08/10 00:44:09;;;;;;;4.28;1.60;;;;;;;;;;5051996;28;20275;-29
2023/08/10 00:46:35;;;;;;;5.88;1.90;;;;;;;;;;5053241;28;20024;-29
2023/08/10 00:49:00;;;;;;;5.85;1.70;;;;;;;;;;5053170;28;20029;-29
2023/08/10 00:51:26;;;;;;;5.68;1.70;;;;;;;;;;5053354;28;20104;-29
2023/08/10 00:53:51;;;;;;;3.20;1.45;;;;;;;;;;5053113;28;20020;-29
2023/08/10 00:56:16;;;;;;;5.18;1.60;;;;;;;;;;5053080;28;20056;-29
2023/08/10 00:58:42;;;;;;;9.95;1.63;;;;;;;;;;5053042;28;20100;-29
2023/08/10 01:01:07;;;;;;;9.93;1.88;;;;;;;;;;5053601;28;20422;-29
2023/08/10 01:03:32;;;;;;;3.90;1.65;;;;;;;;;;5054323;28;20023;-29
2023/08/10 01:05:57;;;;;;;6.57;1.58;;;;;;;;;;5057376;28;20050;-29
2023/08/10 01:08:31;;;;;;;8.43;1.57;;;;;;;;;;5057080;28;20150;-29
2023/08/10 01:11:11;;;;;;;4.88;1.52;;;;;;;;;;5056787;28;20112;-29
2023/08/10 01:13:40;;;;;;;6.07;1.77;;;;;;;;;;5057216;28;20024;-29
2023/08/10 01:16:08;;;;;;;6.43;1.80;;;;;;;;;;5056896;28;20407;-29
2023/08/10 01:18:34;;;;;;;5.78;1.58;;;;;;;;;;5057110;28;20016;-29
2023/08/10 01:20:59;;;;;;;6.78;1.90;;;;;;;;;;5056804;28;20021;-29
2023/08/10 01:23:35;;;;;;;5.55;1.80;;;;;;;;;;5056760;28;20024;-29
2023/08/10 01:26:01;;;;;;;6.95;2.20;;;;;;;;;;5056602;28;20020;-29
2023/08/10 01:28:26;;;;;;;9.43;1.90;;;;;;;;;;5056880;28;20021;-29
2023/08/10 01:30:51;;;;;;;4.70;1.80;;;;;;;;;;5056435;28;20487;-29
2023/08/10 01:33:18;;;;;;;10.05;1.85;;;;;;;;;;5056579;28;20013;-29
2023/08/10 01:35:44;;;;;;;4.82;1.70;;;;;;;;;;5056457;28;20025;-29
2023/08/10 01:38:09;;;;;;;7.22;1.60;;;;;;;;;;5056764;28;20032;-29
2023/08/10 01:40:34;;;;;;;4.15;1.60;;;;;;;;;;5056745;28;20455;-29
2023/08/10 01:43:00;;;;;;;4.70;2.03;;;;;;;;;;5056398;28;20083;-29
2023/08/10 01:45:25;;;;;;;4.40;1.70;;;;;;;;;;5056623;28;20074;-29
2023/08/10 01:48:06;;;;;;;4.47;1.52;;;;;;;;;;5056362;28;20364;-29
2023/08/10 01:50:36;;;;;;;5.07;1.60;;;;;;;;;;5054999;28;20021;-29
2023/08/10 01:53:25;;;;;;;3.67;1.40;;;;;;;;;;5056068;28;20046;-29
2023/08/10 01:55:51;;;;;;;7.63;1.80;;;;;;;;;;5048219;28;20039;-30
2023/08/10 01:58:16;;;;;;;4.88;1.80;;;;;;;;;;5056114;28;20103;-29
2023/08/10 02:00:41;;;;;;;6.55;2.22;;;;;;;;;;5056596;28;20020;-29
2023/08/10 02:03:07;;;;;;;4.55;1.70;;;;;;;;;;5056171;28;20066;-29
2023/08/10 02:05:32;;;;;;;4.43;1.80;;;;;;;;;;5055953;28;20507;-30
2023/08/10 02:07:57;;;;;;;8.48;2.20;;;;;;;;;;5055900;28;20025;-29
2023/08/10 02:10:23;;;;;;;4.75;2.05;;;;;;;;;;5055859;28;20044;-29
2023/08/10 02:12:48;;;;;;;6.18;1.80;;;;;;;;;;5055765;28;20063;-29
2023/08/10 02:15:13;;;;;;;8.07;1.70;;;;;;;;;;5055656;28;20475;-29
2023/08/10 02:17:40;;;;;;;11.90;2.20;;;;;;;;;;5054493;28;20367;-29
2023/08/10 02:20:12;;;;;;;6.97;1.80;;;;;;;;;;5055724;28;20025;-29
2023/08/10 02:22:38;;;;;;;4.70;1.80;;;;;;;;;;5055958;28;20021;-29
2023/08/10 02:25:03;;;;;;;6.75;2.10;;;;;;;;;;5055566;28;20027;-29
2023/08/10 02:27:29;;;;;;;4.57;1.80;;;;;;;;;;5055816;28;20100;-29
2023/08/10 02:29:54;;;;;;;7.80;2.00;;;;;;;;;;5055752;28;20017;-29
2023/08/10 02:32:19;;;;;;;12.30;2.20;;;;;;;;;;5055423;28;20476;-29
2023/08/10 02:34:44;;;;;;;7.43;2.03;;;;;;;;;;5055745;28;20021;-29
2023/08/10 02:37:09;;;;;;;8.27;2.13;;;;;;;;;;5055910;28;20061;-29
2023/08/10 02:39:35;;;;;;;9.20;2.33;;;;;;;;;;5055887;28;20248;-30
2023/08/10 02:42:00;;;;;;;5.70;1.87;;;;;;;;;;5055307;28;20028;-29
2023/08/10 02:44:25;;;;;;;9.35;2.50;;;;;;;;;;5055979;28;20263;-29
2023/08/10 02:46:51;;;;;;;5.28;2.40;;;;;;;;;;5055213;28;20025;-29
2023/08/10 02:49:16;;;;;;;12.68;2.42;;;;;;;;;;5055090;28;20025;-30
2023/08/10 02:51:41;;;;;;;6.88;2.13;;;;;;;;;;5055043;28;20032;-29
2023/08/10 02:54:07;;;;;;;8.43;2.30;;;;;;;;;;5055302;28;20103;-29
2023/08/10 02:56:32;;;;;;;4.13;2.07;;;;;;;;;;5054997;28;20021;-29
2023/08/10 02:58:57;;;;;;;5.27;2.10;;;;;;;;;;5055485;28;20282;-29
2023/08/10 03:01:22;;;;;;;5.03;1.90;;;;;;;;;;5055043;28;20029;-26
2023/08/10 03:03:47;;;;;;;7.93;2.50;;;;;;;;;;5055424;28;20298;-27
2023/08/10 03:06:13;;;;;;;7.38;2.00;;;;;;;;;;5055010;28;20029;-27
2023/08/10 03:08:38;;;;;;;5.60;2.10;;;;;;;;;;5053688;28;20021;-28
2023/08/10 03:11:03;;;;;;;5.33;2.00;;;;;;;;;;5054630;28;20302;-28
2023/08/10 03:13:28;;;;;;;4.55;2.10;;;;;;;;;;5054954;28;20467;-28
2023/08/10 03:15:55;;;;;;;8.80;2.10;;;;;;;;;;5054646;28;20075;-28
2023/08/10 03:18:20;;;;;;;13.02;2.60;;;;;;;;;;5054846;28;20618;-28
2023/08/10 03:20:45;;;;;;;7.27;2.33;;;;;;;;;;5054516;28;20017;-28
2023/08/10 03:23:11;;;;;;;10.05;2.60;;;;;;;;;;5054435;28;20267;-28
2023/08/10 03:25:36;;;;;;;5.15;2.15;;;;;;;;;;5054217;28;20028;-28
2023/08/10 03:28:01;;;;;;;8.50;2.20;;;;;;;;;;5054200;28;20106;-28
2023/08/10 03:30:27;;;;;;;5.15;2.30;;;;;;;;;;5054541;28;20259;-28
2023/08/10 03:32:52;;;;;;;6.23;2.37;;;;;;;;;;5054232;28;20021;-28
2023/08/10 03:35:17;;;;;;;8.13;2.23;;;;;;;;;;5054796;28;20291;-28
2023/08/10 03:37:42;;;;;;;7.93;2.20;;;;;;;;;;5054200;28;20255;-28
2023/08/10 03:40:08;;;;;;;4.97;2.10;;;;;;;;;;5054683;28;20255;-28
2023/08/10 03:42:33;;;;;;;6.53;2.10;;;;;;;;;;5054169;28;20256;-28
2023/08/10 03:44:58;;;;;;;6.57;2.17;;;;;;;;;;5054075;28;20021;-28
2023/08/10 03:47:23;;;;;;;10.68;2.25;;;;;;;;;;5053978;28;20478;-28
2023/08/10 03:49:49;;;;;;;3.43;1.97;;;;;;;;;;5054005;28;20021;-28
2023/08/10 03:52:14;;;;;;;6.03;2.28;;;;;;;;;;5054458;28;20272;-28
2023/08/10 03:54:39;;;;;;;6.15;2.33;;;;;;;;;;5054447;28;20021;-28
2023/08/10 03:57:05;;;;;;;5.03;2.20;;;;;;;;;;5054387;28;20363;-28
2023/08/10 03:59:30;;;;;;;5.28;2.47;;;;;;;;;;5054051;28;20255;-28
2023/08/10 04:01:55;;;;;;;6.90;2.40;;;;;;;;;;5054328;28;20416;-28
2023/08/10 04:04:20;;;;;;;9.37;2.67;;;;;;;;;;5053774;28;20543;-28
2023/08/10 04:06:45;;;;;;;5.65;2.70;;;;;;;;;;5053714;28;20244;-28
2023/08/10 04:09:11;;;;;;;8.60;2.77;;;;;;;;;;5053626;28;20083;-28
2023/08/10 04:11:36;;;;;;;10.97;3.30;;;;;;;;;;5053517;28;20295;-29
2023/08/10 04:14:01;;;;;;;9.87;3.23;;;;;;;;;;5053668;28;20248;-29
2023/08/10 04:16:26;;;;;;;7.70;3.25;;;;;;;;;;5053567;28;20334;-29
2023/08/10 04:18:51;;;;;;;7.37;3.20;;;;;;;;;;5052274;28;20025;-28
2023/08/10 04:21:17;;;;;;;10.82;3.75;;;;;;;;;;5053495;28;20286;-28
2023/08/10 04:23:42;;;;;;;6.47;3.37;;;;;;;;;;5053449;28;20460;-28
2023/08/10 04:26:07;;;;;;;11.07;4.10;;;;;;;;;;5052173;28;20328;-28
2023/08/10 04:28:32;;;;;;;13.63;3.97;;;;;;;;;;5053925;28;20267;-28
2023/08/10 04:30:58;;;;;;;8.60;3.80;;;;;;;;;;5053435;28;20036;-28
2023/08/10 04:33:23;;;;;;;7.70;4.10;;;;;;;;;;5053631;28;20360;-28
2023/08/10 04:35:48;;;;;;;9.98;4.35;;;;;;;;;;5053858;28;20018;-28
2023/08/10 04:38:13;;;;;;;11.13;4.50;;;;;;;;;;5053790;28;20359;-28
2023/08/10 04:40:39;;;;;;;9.52;4.80;;;;;;;;;;5053767;28;20029;-28
2023/08/10 04:43:04;;;;;;;11.63;5.28;;;;;;;;;;5053160;28;20146;-28
2023/08/10 04:45:29;;;;;;;9.50;4.50;;;;;;;;;;5053270;28;20031;-28
2023/08/10 04:47:55;;;;;;;12.27;4.70;;;;;;;;;;5053757;28;20029;-28
2023/08/10 04:50:20;;;;;;;12.65;4.43;;;;;;;;;;5053183;28;20342;-28
2023/08/10 04:52:45;;;;;;;8.75;4.63;;;;;;;;;;5053389;28;20531;-28
2023/08/10 04:55:12;;;;;;;11.02;4.93;;;;;;;;;;5053063;28;20030;-29
2023/08/10 04:57:38;;;;;;;9.02;4.47;;;;;;;;;;5053414;28;20368;-28
2023/08/10 05:00:09;;;;;;;12.45;4.20;;;;;;;;;;5053110;28;20023;-29
2023/08/10 05:02:34;;;;;;;10.40;4.75;;;;;;;;;;5052248;28;20383;-28
2023/08/10 05:04:59;;;;;;;14.73;4.35;;;;;;;;;;5053047;28;20024;-29
2023/08/10 05:07:25;;;;;;;10.52;4.18;;;;;;;;;;5052961;28;20523;-28
2023/08/10 05:09:50;;;;;;;12.50;4.73;;;;;;;;;;5053528;28;20033;-29
2023/08/10 05:12:15;;;;;;;8.90;4.40;;;;;;;;;;5052950;28;20025;-29
2023/08/10 05:14:40;;;;;;;10.60;4.53;;;;;;;;;;5053532;28;20347;-28
2023/08/10 05:17:05;;;;;;;9.68;4.38;;;;;;;;;;5053185;28;20590;-28
2023/08/10 05:19:31;;;;;;;16.58;4.30;;;;;;;;;;5052919;28;20048;-29
2023/08/10 05:21:56;;;;;;;9.43;4.40;;;;;;;;;;5053429;28;20040;-28
2023/08/10 05:24:21;;;;;;;10.63;4.37;;;;;;;;;;5052896;28;20380;-28
2023/08/10 05:26:46;;;;;;;8.50;4.33;;;;;;;;;;5052857;28;20259;-29
2023/08/10 05:29:11;;;;;;;11.40;4.30;;;;;;;;;;5052730;28;20269;-29
2023/08/10 05:31:37;;;;;;;10.05;4.38;;;;;;;;;;5052655;28;20609;-28
2023/08/10 05:34:02;;;;;;;10.40;4.38;;;;;;;;;;5052896;28;20396;-29
2023/08/10 05:36:27;;;;;;;9.63;4.35;;;;;;;;;;5052810;28;20464;-28
2023/08/10 05:38:53;;;;;;;11.82;4.22;;;;;;;;;;5053003;28;20017;-29
2023/08/10 05:41:18;;;;;;;12.63;4.70;;;;;;;;;;5052779;28;20021;-28
2023/08/10 05:43:43;;;;;;;9.57;4.37;;;;;;;;;;5053229;28;20263;-29
2023/08/10 05:46:08;;;;;;;9.02;4.25;;;;;;;;;;5052839;28;20317;-28
2023/08/10 05:48:34;;;;;;;12.00;4.25;;;;;;;;;;5053213;28;20456;-28
2023/08/10 05:50:59;;;;;;;10.77;4.15;;;;;;;;;;5056049;28;20452;-28
2023/08/10 05:53:24;;;;;;;8.43;4.40;;;;;;;;;;5056197;28;20092;-28
2023/08/10 05:55:50;;;;;;;9.93;4.28;;;;;;;;;;5056381;28;20740;-28
2023/08/10 05:58:15;;;;;;;9.43;3.78;;;;;;;;;;5054526;28;20427;-28
2023/08/10 06:00:40;;;;;;;8.57;3.90;;;;;;;;;;5056012;28;20044;-28
2023/08/10 06:03:05;;;;;;;10.37;3.60;;;;;;;;;;5056443;28;20354;-28
2023/08/10 06:05:31;;;;;;;7.95;3.90;;;;;;;;;;5056289;28;20024;-28
2023/08/10 06:07:57;;;;;;;6.80;3.50;;;;;;;;;;5055908;28;20020;-29
2023/08/10 06:10:22;;;;;;;8.27;3.70;;;;;;;;;;5055715;28;20052;-29
2023/08/10 06:12:47;;;;;;;6.32;3.58;;;;;;;;;;5056146;28;20025;-29
2023/08/10 06:15:13;;;;;;;6.78;2.90;;;;;;;;;;5056365;28;20013;-29
2023/08/10 06:17:38;;;;;;;5.13;2.80;;;;;;;;;;5055755;28;20135;-28
2023/08/10 06:20:09;;;;;;;6.30;2.50;;;;;;;;;;5056249;28;20092;-29
2023/08/10 06:22:35;;;;;;;7.05;2.53;;;;;;;;;;5055659;28;20025;-29
2023/08/10 06:25:00;;;;;;;4.32;2.10;;;;;;;;;;5055665;28;20229;-29
2023/08/10 06:27:26;;;;;;;6.10;2.70;;;;;;;;;;5056165;28;20031;-29
2023/08/10 06:29:51;;;;;;;12.73;3.88;;;;;;;;;;5055448;28;20108;-29
2023/08/10 06:32:18;;;;;;;12.63;3.60;;;;;;;;;;5055439;28;20100;-29
2023/08/10 06:34:43;;;;;;;8.07;3.20;;;;;;;;;;5055764;28;20609;-29
2023/08/10 06:37:10;;;;;;;5.27;2.30;;;;;;;;;;5054133;28;20025;-29
2023/08/10 06:39:35;;;;;;;12.43;3.38;;;;;;;;;;5055397;28;20037;-29
2023/08/10 06:42:00;;;;;;;8.50;3.10;;;;;;;;;;5055362;28;20071;-29
2023/08/10 06:44:25;;;;;;;7.17;2.40;;;;;;;;;;5055880;28;20483;-29
2023/08/10 06:46:50;;;;;;;4.13;2.20;;;;;;;;;;5055170;28;20271;-29
2023/08/10 06:49:20;;;;;;;10.53;2.47;;;;;;;;;;5055215;28;20376;-29
2023/08/10 06:51:45;;;;;;;8.27;2.13;;;;;;;;;;5055753;28;20279;-29
2023/08/10 06:54:11;;;;;;;8.17;2.37;;;;;;;;;;5055640;28;20009;-29
2023/08/10 06:56:36;;;;;;;7.40;2.57;;;;;;;;;;5055002;28;20009;-29
2023/08/10 06:59:02;;;;;;;6.15;2.30;;;;;;;;;;5055234;28;20020;-29
2023/08/10 07:01:27;;;;;;;6.13;2.28;;;;;;;;;;5054318;28;20399;-30
2023/08/10 07:03:52;;;;;;;5.20;2.33;;;;;;;;;;5053547;28;20411;-29
2023/08/10 07:06:17;;;;;;;8.47;2.70;;;;;;;;;;5055165;28;20756;-27
2023/08/10 07:08:43;;;;;;;3.92;2.35;;;;;;;;;;5055098;28;20017;-27
2023/08/10 07:11:08;;;;;;;6.45;2.10;;;;;;;;;;5054473;28;20052;-29
2023/08/10 07:13:33;;;;;;;5.68;1.92;;;;;;;;;;5055006;28;20013;-28
2023/08/10 07:15:58;;;;;;;4.80;2.30;;;;;;;;;;5054981;28;20017;-28
2023/08/10 07:18:24;;;;;;;6.53;2.10;;;;;;;;;;5054428;28;20028;-29
2023/08/10 07:20:49;;;;;;;9.17;2.67;;;;;;;;;;5054596;28;20267;-29
2023/08/10 07:23:17;;;;;;;7.03;2.20;;;;;;;;;;5054714;28;20272;-29
2023/08/10 07:25:43;;;;;;;4.25;1.83;;;;;;;;;;5055224;28;20104;-28
2023/08/10 07:28:09;;;;;;;5.20;2.00;;;;;;;;;;5054704;28;20027;-29
2023/08/10 07:30:34;;;;;;;3.33;1.80;;;;;;;;;;5054638;28;20400;-28
2023/08/10 07:32:59;;;;;;;5.55;1.88;;;;;;;;;;5054152;28;20275;-28
2023/08/10 07:35:25;;;;;;;3.43;1.90;;;;;;;;;;5054266;28;20058;-28
2023/08/10 07:37:50;;;;;;;4.45;1.90;;;;;;;;;;5054484;28;20301;-28
2023/08/10 07:40:15;;;;;;;4.50;1.80;;;;;;;;;;5054157;28;20419;-28
2023/08/10 07:42:40;;;;;;;4.53;2.30;;;;;;;;;;5054194;28;20033;-28
2023/08/10 07:45:09;;;;;;;5.10;2.28;;;;;;;;;;5054392;28;20263;-28
2023/08/10 07:47:34;;;;;;;6.28;2.00;;;;;;;;;;5054277;28;20380;-28
2023/08/10 07:49:59;;;;;;;4.30;1.77;;;;;;;;;;5054046;28;20047;-28
2023/08/10 07:52:25;;;;;;;4.47;1.90;;;;;;;;;;5053834;28;20271;-29
2023/08/10 07:54:50;;;;;;;4.47;1.87;;;;;;;;;;5054469;28;20021;-28
2023/08/10 07:57:15;;;;;;;5.37;2.10;;;;;;;;;;5053870;28;20263;-28
2023/08/10 07:59:40;;;;;;;4.13;2.00;;;;;;;;;;5054349;28;20271;-28
2023/08/10 08:02:05;;;;;;;5.37;1.77;;;;;;;;;;5053770;28;20252;-28
2023/08/10 08:04:31;;;;;;;3.37;1.90;;;;;;;;;;5053732;28;20255;-28
2023/08/10 08:06:56;;;;;;;4.60;2.10;;;;;;;;;;5053949;28;20028;-30
2023/08/10 08:09:22;;;;;;;3.90;1.90;;;;;;;;;;5054785;28;20255;-28
2023/08/10 08:11:48;;;;;;;3.83;1.80;;;;;;;;;;5053270;28;20091;-28
2023/08/10 08:14:13;;;;;;;3.50;1.73;;;;;;;;;;5053583;28;20020;-29
2023/08/10 08:16:38;;;;;;;5.63;2.30;;;;;;;;;;5053607;28;20517;-29
2023/08/10 08:19:03;;;;;;;5.77;2.20;;;;;;;;;;5053529;28;20017;-28
2023/08/10 08:21:29;;;;;;;4.30;2.27;;;;;;;;;;5053828;28;20021;-28
2023/08/10 08:23:55;;;;;;;7.95;2.03;;;;;;;;;;5053452;28;20021;-29
2023/08/10 08:26:23;;;;;;;7.28;2.10;;;;;;;;;;5053470;28;20460;-29
2023/08/10 08:28:49;;;;;;;5.55;2.17;;;;;;;;;;5053665;28;20422;-28
2023/08/10 08:31:14;;;;;;;6.93;2.47;;;;;;;;;;5053418;28;20021;-28
2023/08/10 08:33:39;;;;;;;9.07;2.43;;;;;;;;;;5053388;28;20017;-29
2023/08/10 08:36:05;;;;;;;6.25;2.72;;;;;;;;;;5052742;28;20272;-29
2023/08/10 08:38:32;;;;;;;5.15;2.10;;;;;;;;;;5053266;28;20009;-29
2023/08/10 08:40:57;;;;;;;5.35;2.30;;;;;;;;;;5053294;28;20025;-29
2023/08/10 08:43:23;;;;;;;5.80;2.72;;;;;;;;;;5053213;28;20032;-29
2023/08/10 08:45:48;;;;;;;8.90;3.70;;;;;;;;;;5053084;28;20104;-29
2023/08/10 08:48:14;;;;;;;7.32;4.20;;;;;;;;;;5053079;28;20271;-29
2023/08/10 08:50:39;;;;;;;8.77;3.60;;;;;;;;;;5053167;28;20375;-29
2023/08/10 08:53:06;;;;;;;6.10;3.30;;;;;;;;;;5053436;28;20376;-29
2023/08/10 08:55:31;;;;;;;8.90;3.25;;;;;;;;;;5053007;28;20107;-29
2023/08/10 08:57:56;;;;;;;11.02;3.40;;;;;;;;;;5053150;28;20097;-29
2023/08/10 09:00:22;;;;;;;5.57;3.20;;;;;;;;;;5053183;28;20021;-29
2023/08/10 09:02:48;;;;;;;5.40;3.20;;;;;;;;;;5053151;28;20706;-29
2023/08/10 09:05:13;;;;;;;7.85;3.47;;;;;;;;;;5053105;28;20368;-29
2023/08/10 09:07:39;;;;;;;5.83;3.30;;;;;;;;;;5053479;28;20104;-29
2023/08/10 09:10:04;;;;;;;7.00;3.47;;;;;;;;;;5053461;28;20355;-29
2023/08/10 09:12:39;;;;;;;9.13;4.13;;;;;;;;;;5052800;28;20374;-29
2023/08/10 09:15:11;;;;;;;11.75;4.20;;;;;;;;;;5052932;28;20009;-29
2023/08/10 09:17:37;;;;;;;7.07;3.60;;;;;;;;;;5052936;28;20048;-29
2023/08/10 09:20:06;;;;;;;8.05;4.03;;;;;;;;;;5052933;28;20017;-29
2023/08/10 09:22:33;;;;;;;7.55;4.30;;;;;;;;;;5053081;28;20035;-29
2023/08/10 09:24:58;;;;;;;9.40;4.30;;;;;;;;;;5055012;28;20520;-29
2023/08/10 09:27:25;;;;;;;12.73;4.32;;;;;;;;;;5057069;28;20060;-29
2023/08/10 09:29:54;;;;;;;9.00;4.80;;;;;;;;;;5056718;28;20016;-29
2023/08/10 09:32:20;;;;;;;9.93;4.65;;;;;;;;;;5056554;28;20456;-29
2023/08/10 09:34:45;;;;;;;8.48;4.50;;;;;;;;;;5056629;28;20143;-29
2023/08/10 09:37:12;;;;;;;8.57;4.70;;;;;;;;;;5056586;28;20057;-28
2023/08/10 09:39:37;;;;;;;7.45;5.07;;;;;;;;;;5057057;28;20017;-28
2023/08/10 09:42:03;;;;;;;10.50;5.40;;;;;;;;;;5056525;28;20024;-28
2023/08/10 09:44:41;;;;;;;10.93;4.93;;;;;;;;;;5056742;28;20368;-28
2023/08/10 09:47:06;;;;;;;10.18;5.55;;;;;;;;;;5056193;28;20025;-28
2023/08/10 09:49:31;;;;;;;10.38;5.78;;;;;;;;;;5057119;28;20047;-29
2023/08/10 09:51:57;;;;;;;8.77;5.50;;;;;;;;;;5056235;28;20040;-29
2023/08/10 09:54:23;;;;;;;9.52;5.93;;;;;;;;;;5056546;28;20301;-29
2023/08/10 09:56:49;;;;;;;12.43;6.55;;;;;;;;;;5056241;28;20041;-29
2023/08/10 09:59:14;;;;;;;9.80;5.82;;;;;;;;;;5056134;28;20021;-29
2023/08/10 10:01:40;;;;;;;9.83;5.57;;;;;;;;;;5055455;28;20017;-29
2023/08/10 10:04:06;;;;;;;10.77;6.47;;;;;;;;;;5054504;28;20271;-29
2023/08/10 10:06:31;;;;;;;10.20;6.22;;;;;;;;;;5056123;28;20025;-29
2023/08/10 10:08:57;;;;;;;11.10;6.57;;;;;;;;;;5055755;28;20017;-29
2023/08/10 10:11:23;;;;;;;11.52;6.50;;;;;;;;;;5055320;28;20053;-29
2023/08/10 10:13:49;;;;;;;13.43;6.25;;;;;;;;;;5055472;28;20012;-29
2023/08/10 10:16:16;;;;;;;9.77;6.47;;;;;;;;;;5055466;28;20527;-29
2023/08/10 10:18:41;;;;;;;11.35;6.93;;;;;;;;;;5055440;28;20096;-29
2023/08/10 10:21:07;;;;;;;12.43;7.20;;;;;;;;;;5055647;28;20100;-28
2023/08/10 10:23:32;;;;;;;11.82;7.22;;;;;;;;;;5055485;28;20016;-28
2023/08/10 10:25:58;;;;;;;14.73;7.22;;;;;;;;;;5055697;28;20013;-28
2023/08/10 10:28:24;;;;;;;15.60;7.40;;;;;;;;;;5055645;28;20013;-29
2023/08/10 10:30:54;;;;;;;12.93;8.60;;;;;;;;;;5055766;28;20024;-29
2023/08/10 10:33:19;;;;;;;12.15;7.70;;;;;;;;;;5055361;28;20025;-29
2023/08/10 10:36:04;;;;;;;10.38;6.50;;;;;;;;;;5054830;28;20375;-29
2023/08/10 10:38:29;;;;;;;11.82;6.80;;;;;;;;;;5054975;28;20021;-29
2023/08/10 10:40:54;;;;;;;12.13;7.07;;;;;;;;;;5054857;28;20020;-29
2023/08/10 10:43:20;;;;;;;12.03;5.03;;;;;;;;;;5054848;28;20461;-29
2023/08/10 10:45:45;;;;;;;7.50;4.13;;;;;;;;;;5055130;28;20734;-29
2023/08/10 10:48:11;;;;;;;7.13;4.07;;;;;;;;;;5055751;28;20025;-29
2023/08/10 10:50:36;;;;;;;7.38;3.83;;;;;;;;;;5055470;28;20021;-29
2023/08/10 10:53:12;;;;;;;7.85;4.05;;;;;;;;;;5055130;28;20096;-29
2023/08/10 10:55:41;;;;;;;8.30;3.90;;;;;;;;;;5055381;28;20052;-29
2023/08/10 10:58:07;;;;;;;6.32;3.47;;;;;;;;;;5055278;28;20045;-29
2023/08/10 11:00:33;;;;;;;7.28;4.30;;;;;;;;;;5054940;28;20028;-29
2023/08/10 11:02:59;;;;;;;8.27;5.05;;;;;;;;;;5055260;28;20052;-28
2023/08/10 11:05:24;;;;;;;8.85;4.60;;;;;;;;;;5053480;28;20550;-28
2023/08/10 11:07:50;;;;;;;9.30;3.33;;;;;;;;;;5054727;28;20025;-28
2023/08/10 11:10:18;;;;;;;6.28;3.50;;;;;;;;;;5054603;28;20305;-28
2023/08/10 11:12:43;;;;;;;8.00;3.60;;;;;;;;;;5054704;28;20467;-29
2023/08/10 11:15:10;;;;;;;6.40;4.25;;;;;;;;;;5055006;28;20027;-29
2023/08/10 11:17:36;;;;;;;5.97;3.67;;;;;;;;;;5055146;28;20025;-29
2023/08/10 11:20:06;;;;;;;10.00;3.92;;;;;;;;;;5054608;28;20017;-29
2023/08/10 11:22:32;;;;;;;5.75;2.92;;;;;;;;;;5054828;28;20036;-29
2023/08/10 11:24:57;;;;;;;5.90;2.23;;;;;;;;;;5054545;28;20017;-29
2023/08/10 11:27:22;;;;;;;4.10;2.77;;;;;;;;;;5054396;28;20265;-29
2023/08/10 11:29:48;;;;;;;10.40;2.95;;;;;;;;;;5054393;28;20033;-29
2023/08/10 11:32:13;;;;;;;8.13;3.30;;;;;;;;;;5054328;28;20017;-30
2023/08/10 11:34:38;;;;;;;6.70;3.30;;;;;;;;;;5054367;28;20354;-29
2023/08/10 11:37:03;;;;;;;7.37;2.83;;;;;;;;;;5054814;28;20251;-28
2023/08/10 11:39:30;;;;;;;5.03;2.90;;;;;;;;;;5054835;28;20252;-28
2023/08/10 11:41:56;;;;;;;5.47;2.88;;;;;;;;;;5054417;28;20372;-28
2023/08/10 11:44:32;;;;;;;7.95;2.80;;;;;;;;;;5054402;28;20104;-29
2023/08/10 11:46:57;;;;;;;6.47;2.67;;;;;;;;;;5053794;28;20384;-27
2023/08/10 11:49:27;;;;;;;6.00;2.70;;;;;;;;;;5054057;28;20021;-28
2023/08/10 11:51:52;;;;;;;4.20;2.60;;;;;;;;;;5053956;28;20036;-29
2023/08/10 11:54:18;;;;;;;7.57;2.50;;;;;;;;;;5054034;28;20009;-29
2023/08/10 11:56:46;;;;;;;4.55;2.67;;;;;;;;;;5054251;28;20099;-28
2023/08/10 11:59:14;;;;;;;5.05;2.72;;;;;;;;;;5054113;28;20028;-29
2023/08/10 12:01:53;;;;;;;5.93;3.28;;;;;;;;;;5053895;28;20123;-29
2023/08/10 12:04:18;;;;;;;6.65;3.08;;;;;;;;;;5053819;28;20024;-29
2023/08/10 12:06:44;;;;;;;5.82;2.72;;;;;;;;;;5053791;28;20025;-29
2023/08/10 12:09:10;;;;;;;4.13;2.67;;;;;;;;;;5053665;28;20476;-29
2023/08/10 12:11:35;;;;;;;4.20;2.30;;;;;;;;;;5053469;28;20087;-29
2023/08/10 12:14:01;;;;;;;4.40;2.17;;;;;;;;;;5053612;28;20476;-29
2023/08/10 12:16:26;;;;;;;7.10;2.58;;;;;;;;;;5053828;28;20021;-29
2023/08/10 12:18:51;;;;;;;6.40;2.70;;;;;;;;;;5053518;28;20025;-29
2023/08/10 12:21:16;;;;;;;7.75;2.70;;;;;;;;;;5052254;28;20025;-29
2023/08/10 12:23:42;;;;;;;5.80;2.60;;;;;;;;;;5053447;28;20551;-29
2023/08/10 12:26:07;;;;;;;4.53;2.40;;;;;;;;;;5053821;28;20146;-29
2023/08/10 12:28:32;;;;;;;6.07;2.30;;;;;;;;;;5053498;28;20041;-29
2023/08/10 12:30:58;;;;;;;4.57;2.42;;;;;;;;;;5053226;28;20263;-29
2023/08/10 12:33:24;;;;;;;5.07;2.60;;;;;;;;;;5053230;28;20028;-29
2023/08/10 12:35:49;;;;;;;2.93;2.17;;;;;;;;;;5053338;28;20013;-29
2023/08/10 12:38:15;;;;;;;9.52;2.30;;;;;;;;;;5054068;28;20251;-29
2023/08/10 12:40:40;;;;;;;7.75;2.75;;;;;;;;;;5053556;28;20035;-29
2023/08/10 12:43:06;;;;;;;6.15;2.42;;;;;;;;;;5053551;28;20017;-29
2023/08/10 12:45:31;;;;;;;4.18;2.13;;;;;;;;;;5053172;28;20035;-29
2023/08/10 12:47:59;;;;;;;6.95;2.30;;;;;;;;;;5053799;28;20029;-29
2023/08/10 12:50:24;;;;;;;4.32;2.38;;;;;;;;;;5053144;28;20023;-29
2023/08/10 12:52:49;;;;;;;3.60;2.17;;;;;;;;;;5052961;28;20029;-29
2023/08/10 12:55:16;;;;;;;8.90;2.90;;;;;;;;;;5053151;28;20096;-29
2023/08/10 12:57:41;;;;;;;6.53;3.05;;;;;;;;;;5054119;28;20357;-29
2023/08/10 13:00:09;;;;;;;4.50;2.70;;;;;;;;;;5055342;28;20096;-30
2023/08/10 13:02:34;;;;;;;6.20;2.70;;;;;;;;;;5057527;28;20108;-29
2023/08/10 13:04:59;;;;;;;4.05;2.67;;;;;;;;;;5057203;28;20052;-29
2023/08/10 13:07:25;;;;;;;6.57;2.75;;;;;;;;;;5057353;28;20459;-29
2023/08/10 13:09:50;;;;;;;7.40;2.70;;;;;;;;;;5056952;28;20414;-29
2023/08/10 13:12:15;;;;;;;7.33;3.00;;;;;;;;;;5056999;28;20024;-29
2023/08/10 13:14:40;;;;;;;5.00;2.72;;;;;;;;;;5056915;28;20021;-28
2023/08/10 13:17:06;;;;;;;9.20;3.13;;;;;;;;;;5057466;28;20021;-28
2023/08/10 13:19:32;;;;;;;7.93;3.20;;;;;;;;;;5056813;28;20105;-29
2023/08/10 13:21:57;;;;;;;6.55;3.20;;;;;;;;;;5056870;28;20025;-28
2023/08/10 13:24:22;;;;;;;6.27;2.93;;;;;;;;;;5057314;28;20021;-28
2023/08/10 13:26:48;;;;;;;4.80;2.80;;;;;;;;;;5057317;28;20021;-28
2023/08/10 13:29:13;;;;;;;7.37;3.17;;;;;;;;;;5057214;28;20606;-28
2023/08/10 13:31:39;;;;;;;10.65;3.20;;;;;;;;;;5056512;28;20021;-28
2023/08/10 13:34:06;;;;;;;7.30;3.20;;;;;;;;;;5056880;28;20052;-29
2023/08/10 13:36:32;;;;;;;5.60;2.38;;;;;;;;;;5056542;28;20070;-28
2023/08/10 13:38:57;;;;;;;7.13;2.92;;;;;;;;;;5057022;28;20103;-28
2023/08/10 13:41:22;;;;;;;7.72;3.30;;;;;;;;;;5056890;28;20017;-29
2023/08/10 13:43:48;;;;;;;7.53;3.27;;;;;;;;;;5056502;28;20017;-29
2023/08/10 13:46:13;;;;;;;6.22;3.53;;;;;;;;;;5056618;28;20020;-29
2023/08/10 13:48:38;;;;;;;6.40;3.90;;;;;;;;;;5056694;28;20451;-29
2023/08/10 13:51:04;;;;;;;7.17;3.43;;;;;;;;;;5056296;28;20250;-29
2023/08/10 13:53:29;;;;;;;8.03;3.40;;;;;;;;;;5056726;28;20021;-29
2023/08/10 13:55:54;;;;;;;10.27;3.80;;;;;;;;;;5056786;28;20432;-29
2023/08/10 13:58:19;;;;;;;5.93;3.15;;;;;;;;;;5056423;28;20762;-29
2023/08/10 14:00:44;;;;;;;6.77;2.93;;;;;;;;;;5056762;28;20009;-29
2023/08/10 14:03:10;;;;;;;6.60;3.73;;;;;;;;;;5055740;28;20341;-29
2023/08/10 14:05:35;;;;;;;6.22;3.05;;;;;;;;;;5056056;28;20010;-29
2023/08/10 14:08:00;;;;;;;5.63;3.40;;;;;;;;;;5056010;28;20075;-29
2023/08/10 14:10:25;;;;;;;7.27;3.57;;;;;;;;;;5055278;28;20076;-29
2023/08/10 14:12:51;;;;;;;5.67;3.33;;;;;;;;;;5056165;28;20634;-29
2023/08/10 14:15:16;;;;;;;12.17;3.47;;;;;;;;;;5056475;28;20470;-28
2023/08/10 14:17:41;;;;;;;5.70;3.42;;;;;;;;;;5055787;28;20745;-28
2023/08/10 14:20:08;;;;;;;8.90;3.77;;;;;;;;;;5055779;28;20056;-28
2023/08/10 14:22:34;;;;;;;7.60;3.78;;;;;;;;;;5056000;28;20032;-28
2023/08/10 14:25:01;;;;;;;6.30;4.00;;;;;;;;;;5055631;28;20017;-28
2023/08/10 14:27:26;;;;;;;9.50;3.67;;;;;;;;;;5055859;28;20029;-28
2023/08/10 14:29:51;;;;;;;7.67;4.27;;;;;;;;;;5055708;28;20017;-29
2023/08/10 14:32:17;;;;;;;9.77;3.97;;;;;;;;;;5055434;28;20056;-29